sensor_id;sensor_type;location;lat;lon;timestamp;P1;durP1;ratioP1;P2;durP2;ratioP2
44995;SDS011;30729;49.486;10.792;2023-03-01T00:02:02;21.45;;;10.63;;
44995;SDS011;30729;49.486;10.792;2023-03-01T00:05:26;19.05;;;10.05;;
44995;SDS011;30729;49.486;10.792;2023-03-01T00:08:51;19.27;;;9.85;;
44995;SDS011;30729;49.486;10.792;2023-03-01T00:12:15;21.02;;;11.15;;
44995;SDS011;30729;49.486;10.792;2023-03-01T00:15:39;22.15;;;9.60;;
44995;SDS011;30729;49.486;10.792;2023-03-01T00:19:06;20.65;;;9.73;;
44995;SDS011;30729;49.486;10.792;2023-03-01T00:22:35;17.90;;;8.82;;
44995;SDS011;30729;49.486;10.792;2023-03-01T00:26:00;24.63;;;10.65;;
44995;SDS011;30729;49.486;10.792;2023-03-01T00:29:24;24.63;;;10.43;;
44995;SDS011;30729;49.486;10.792;2023-03-01T00:32:48;20.90;;;10.75;;
44995;SDS011;30729;49.486;10.792;2023-03-01T00:36:13;20.98;;;10.77;;
44995;SDS011;30729;49.486;10.792;2023-03-01T00:39:38;20.52;;;9.75;;
44995;SDS011;30729;49.486;10.792;2023-03-01T00:43:02;21.90;;;10.70;;
44995;SDS011;30729;49.486;10.792;2023-03-01T00:46:27;21.48;;;9.30;;
44995;SDS011;30729;49.486;10.792;2023-03-01T00:53:17;20.85;;;9.70;;
44995;SDS011;30729;49.486;10.792;2023-03-01T00:56:41;21.50;;;10.32;;
44995;SDS011;30729;49.486;10.792;2023-03-01T01:00:05;17.75;;;9.88;;
44995;SDS011;30729;49.486;10.792;2023-03-01T01:07:10;21.42;;;9.65;;
44995;SDS011;30729;49.486;10.792;2023-03-01T01:10:34;25.48;;;10.52;;
44995;SDS011;30729;49.486;10.792;2023-03-01T01:17:24;20.50;;;10.23;;
44995;SDS011;30729;49.486;10.792;2023-03-01T01:20:48;22.45;;;10.55;;
44995;SDS011;30729;49.486;10.792;2023-03-01T01:24:13;19.88;;;10.07;;
44995;SDS011;30729;49.486;10.792;2023-03-01T01:27:37;20.67;;;11.05;;
44995;SDS011;30729;49.486;10.792;2023-03-01T01:31:02;21.92;;;10.75;;
44995;SDS011;30729;49.486;10.792;2023-03-01T01:34:26;21.83;;;11.10;;
44995;SDS011;30729;49.486;10.792;2023-03-01T01:37:49;19.95;;;10.18;;
44995;SDS011;30729;49.486;10.792;2023-03-01T01:41:14;23.02;;;10.88;;
44995;SDS011;30729;49.486;10.792;2023-03-01T01:44:42;22.63;;;11.18;;
44995;SDS011;30729;49.486;10.792;2023-03-01T01:48:06;19.98;;;10.90;;
44995;SDS011;30729;49.486;10.792;2023-03-01T01:51:56;21.60;;;10.90;;
44995;SDS011;30729;49.486;10.792;2023-03-01T01:55:23;22.92;;;10.82;;
44995;SDS011;30729;49.486;10.792;2023-03-01T01:58:48;23.33;;;10.77;;
44995;SDS011;30729;49.486;10.792;2023-03-01T02:02:16;23.67;;;11.27;;
44995;SDS011;30729;49.486;10.792;2023-03-01T02:05:51;18.30;;;9.70;;
44995;SDS011;30729;49.486;10.792;2023-03-01T02:09:28;27.23;;;10.85;;
44995;SDS011;30729;49.486;10.792;2023-03-01T02:12:54;24.88;;;10.65;;
44995;SDS011;30729;49.486;10.792;2023-03-01T02:16:19;22.83;;;10.20;;
44995;SDS011;30729;49.486;10.792;2023-03-01T02:23:26;25.05;;;10.07;;
44995;SDS011;30729;49.486;10.792;2023-03-01T02:26:57;20.35;;;9.95;;
44995;SDS011;30729;49.486;10.792;2023-03-01T02:30:36;23.67;;;10.95;;
44995;SDS011;30729;49.486;10.792;2023-03-01T02:34:06;23.20;;;10.57;;
44995;SDS011;30729;49.486;10.792;2023-03-01T02:37:31;19.88;;;9.80;;
44995;SDS011;30729;49.486;10.792;2023-03-01T02:40:56;24.23;;;10.98;;
44995;SDS011;30729;49.486;10.792;2023-03-01T02:44:21;22.63;;;11.10;;
44995;SDS011;30729;49.486;10.792;2023-03-01T02:47:46;22.30;;;11.30;;
44995;SDS011;30729;49.486;10.792;2023-03-01T02:55:10;22.23;;;10.52;;
44995;SDS011;30729;49.486;10.792;2023-03-01T02:58:37;26.38;;;10.63;;
44995;SDS011;30729;49.486;10.792;2023-03-01T03:02:06;24.77;;;11.45;;
44995;SDS011;30729;49.486;10.792;2023-03-01T03:05:31;24.02;;;10.82;;
44995;SDS011;30729;49.486;10.792;2023-03-01T03:08:55;23.73;;;11.95;;
44995;SDS011;30729;49.486;10.792;2023-03-01T03:12:19;22.60;;;11.02;;
44995;SDS011;30729;49.486;10.792;2023-03-01T03:15:44;22.83;;;9.73;;
44995;SDS011;30729;49.486;10.792;2023-03-01T03:19:10;21.42;;;10.55;;
44995;SDS011;30729;49.486;10.792;2023-03-01T03:22:37;24.75;;;11.50;;
44995;SDS011;30729;49.486;10.792;2023-03-01T03:26:02;22.30;;;11.45;;
44995;SDS011;30729;49.486;10.792;2023-03-01T03:29:25;21.27;;;9.95;;
44995;SDS011;30729;49.486;10.792;2023-03-01T03:32:54;25.20;;;11.10;;
44995;SDS011;30729;49.486;10.792;2023-03-01T03:36:19;21.17;;;10.75;;
44995;SDS011;30729;49.486;10.792;2023-03-01T03:40:10;23.42;;;10.00;;
44995;SDS011;30729;49.486;10.792;2023-03-01T03:43:35;21.42;;;9.93;;
44995;SDS011;30729;49.486;10.792;2023-03-01T03:46:58;22.40;;;10.63;;
44995;SDS011;30729;49.486;10.792;2023-03-01T03:50:22;23.35;;;11.73;;
44995;SDS011;30729;49.486;10.792;2023-03-01T03:53:47;23.00;;;10.77;;
44995;SDS011;30729;49.486;10.792;2023-03-01T03:57:11;25.08;;;11.13;;
44995;SDS011;30729;49.486;10.792;2023-03-01T04:00:36;23.67;;;11.43;;
44995;SDS011;30729;49.486;10.792;2023-03-01T04:04:00;21.23;;;9.90;;
44995;SDS011;30729;49.486;10.792;2023-03-01T04:07:24;23.15;;;10.07;;
44995;SDS011;30729;49.486;10.792;2023-03-01T04:10:50;23.75;;;11.55;;
44995;SDS011;30729;49.486;10.792;2023-03-01T04:14:14;22.77;;;11.05;;
44995;SDS011;30729;49.486;10.792;2023-03-01T04:17:44;25.42;;;10.45;;
44995;SDS011;30729;49.486;10.792;2023-03-01T04:21:09;26.05;;;10.73;;
44995;SDS011;30729;49.486;10.792;2023-03-01T04:24:37;25.15;;;10.73;;
44995;SDS011;30729;49.486;10.792;2023-03-01T04:28:05;20.48;;;10.90;;
44995;SDS011;30729;49.486;10.792;2023-03-01T04:31:30;22.08;;;10.98;;
44995;SDS011;30729;49.486;10.792;2023-03-01T04:34:54;22.73;;;12.10;;
44995;SDS011;30729;49.486;10.792;2023-03-01T04:38:18;23.60;;;11.35;;
44995;SDS011;30729;49.486;10.792;2023-03-01T04:41:42;26.10;;;10.63;;
44995;SDS011;30729;49.486;10.792;2023-03-01T04:45:07;26.30;;;12.00;;
44995;SDS011;30729;49.486;10.792;2023-03-01T04:48:34;22.30;;;11.18;;
44995;SDS011;30729;49.486;10.792;2023-03-01T04:51:58;21.83;;;10.73;;
44995;SDS011;30729;49.486;10.792;2023-03-01T04:55:24;24.15;;;11.45;;
44995;SDS011;30729;49.486;10.792;2023-03-01T04:58:48;23.70;;;11.10;;
44995;SDS011;30729;49.486;10.792;2023-03-01T05:02:12;23.80;;;11.13;;
44995;SDS011;30729;49.486;10.792;2023-03-01T05:05:37;23.38;;;11.43;;
44995;SDS011;30729;49.486;10.792;2023-03-01T05:09:01;23.75;;;11.68;;
44995;SDS011;30729;49.486;10.792;2023-03-01T05:12:25;26.48;;;11.32;;
44995;SDS011;30729;49.486;10.792;2023-03-01T05:15:53;24.23;;;11.45;;
44995;SDS011;30729;49.486;10.792;2023-03-01T05:19:18;26.70;;;12.80;;
44995;SDS011;30729;49.486;10.792;2023-03-01T05:22:42;23.65;;;10.68;;
44995;SDS011;30729;49.486;10.792;2023-03-01T05:26:07;20.80;;;10.15;;
44995;SDS011;30729;49.486;10.792;2023-03-01T05:29:31;26.00;;;11.10;;
44995;SDS011;30729;49.486;10.792;2023-03-01T05:32:56;25.05;;;10.27;;
44995;SDS011;30729;49.486;10.792;2023-03-01T05:36:20;24.23;;;11.18;;
44995;SDS011;30729;49.486;10.792;2023-03-01T05:39:44;25.00;;;11.65;;
44995;SDS011;30729;49.486;10.792;2023-03-01T05:43:09;19.65;;;10.23;;
44995;SDS011;30729;49.486;10.792;2023-03-01T05:46:33;23.33;;;10.95;;
44995;SDS011;30729;49.486;10.792;2023-03-01T05:49:57;25.35;;;11.43;;
44995;SDS011;30729;49.486;10.792;2023-03-01T05:53:25;23.75;;;10.82;;
44995;SDS011;30729;49.486;10.792;2023-03-01T05:56:48;23.55;;;11.80;;
44995;SDS011;30729;49.486;10.792;2023-03-01T06:00:13;25.40;;;11.32;;
44995;SDS011;30729;49.486;10.792;2023-03-01T06:03:38;26.10;;;10.68;;
44995;SDS011;30729;49.486;10.792;2023-03-01T06:07:02;24.80;;;11.60;;
44995;SDS011;30729;49.486;10.792;2023-03-01T06:10:27;26.67;;;11.20;;
44995;SDS011;30729;49.486;10.792;2023-03-01T06:13:51;31.33;;;12.95;;
44995;SDS011;30729;49.486;10.792;2023-03-01T06:17:14;23.63;;;10.98;;
44995;SDS011;30729;49.486;10.792;2023-03-01T06:20:38;23.08;;;11.15;;
44995;SDS011;30729;49.486;10.792;2023-03-01T06:24:02;27.88;;;12.57;;
44995;SDS011;30729;49.486;10.792;2023-03-01T06:27:27;24.42;;;13.32;;
44995;SDS011;30729;49.486;10.792;2023-03-01T06:30:51;30.70;;;12.13;;
44995;SDS011;30729;49.486;10.792;2023-03-01T06:34:15;24.42;;;11.15;;
44995;SDS011;30729;49.486;10.792;2023-03-01T06:37:42;27.77;;;12.05;;
44995;SDS011;30729;49.486;10.792;2023-03-01T06:41:06;25.08;;;11.60;;
44995;SDS011;30729;49.486;10.792;2023-03-01T06:44:31;25.92;;;12.68;;
44995;SDS011;30729;49.486;10.792;2023-03-01T06:48:03;25.55;;;11.88;;
44995;SDS011;30729;49.486;10.792;2023-03-01T06:51:29;27.75;;;12.30;;
44995;SDS011;30729;49.486;10.792;2023-03-01T06:54:54;21.92;;;10.82;;
44995;SDS011;30729;49.486;10.792;2023-03-01T06:58:25;28.65;;;12.40;;
44995;SDS011;30729;49.486;10.792;2023-03-01T07:01:49;27.95;;;12.23;;
44995;SDS011;30729;49.486;10.792;2023-03-01T07:05:13;30.67;;;13.35;;
44995;SDS011;30729;49.486;10.792;2023-03-01T07:08:36;28.08;;;12.82;;
44995;SDS011;30729;49.486;10.792;2023-03-01T07:12:00;23.92;;;11.07;;
44995;SDS011;30729;49.486;10.792;2023-03-01T07:15:25;27.70;;;12.50;;
44995;SDS011;30729;49.486;10.792;2023-03-01T07:18:49;26.33;;;12.35;;
44995;SDS011;30729;49.486;10.792;2023-03-01T07:22:13;27.55;;;12.25;;
44995;SDS011;30729;49.486;10.792;2023-03-01T07:25:36;29.98;;;13.13;;
44995;SDS011;30729;49.486;10.792;2023-03-01T07:29:01;25.38;;;12.07;;
44995;SDS011;30729;49.486;10.792;2023-03-01T07:32:26;23.17;;;12.73;;
44995;SDS011;30729;49.486;10.792;2023-03-01T07:35:55;23.27;;;12.07;;
44995;SDS011;30729;49.486;10.792;2023-03-01T07:39:19;30.80;;;12.27;;
44995;SDS011;30729;49.486;10.792;2023-03-01T07:42:43;26.45;;;12.15;;
44995;SDS011;30729;49.486;10.792;2023-03-01T07:46:07;27.83;;;11.75;;
44995;SDS011;30729;49.486;10.792;2023-03-01T07:49:31;29.50;;;12.48;;
44995;SDS011;30729;49.486;10.792;2023-03-01T07:52:55;23.90;;;11.68;;
44995;SDS011;30729;49.486;10.792;2023-03-01T07:56:18;26.95;;;12.63;;
44995;SDS011;30729;49.486;10.792;2023-03-01T07:59:42;27.55;;;12.95;;
44995;SDS011;30729;49.486;10.792;2023-03-01T08:03:06;26.48;;;12.38;;
44995;SDS011;30729;49.486;10.792;2023-03-01T08:06:33;24.92;;;12.50;;
44995;SDS011;30729;49.486;10.792;2023-03-01T08:09:58;30.58;;;13.02;;
44995;SDS011;30729;49.486;10.792;2023-03-01T08:13:22;27.00;;;12.85;;
44995;SDS011;30729;49.486;10.792;2023-03-01T08:16:48;28.92;;;12.65;;
44995;SDS011;30729;49.486;10.792;2023-03-01T08:20:13;26.13;;;12.15;;
44995;SDS011;30729;49.486;10.792;2023-03-01T08:23:39;27.58;;;13.05;;
44995;SDS011;30729;49.486;10.792;2023-03-01T08:27:03;23.42;;;12.07;;
44995;SDS011;30729;49.486;10.792;2023-03-01T08:30:27;24.98;;;12.10;;
44995;SDS011;30729;49.486;10.792;2023-03-01T08:33:57;24.83;;;12.02;;
44995;SDS011;30729;49.486;10.792;2023-03-01T08:37:21;29.17;;;12.82;;
44995;SDS011;30729;49.486;10.792;2023-03-01T08:40:45;26.30;;;13.82;;
44995;SDS011;30729;49.486;10.792;2023-03-01T08:44:09;28.27;;;13.68;;
44995;SDS011;30729;49.486;10.792;2023-03-01T08:47:34;27.50;;;13.10;;
44995;SDS011;30729;49.486;10.792;2023-03-01T08:51:06;25.45;;;12.45;;
44995;SDS011;30729;49.486;10.792;2023-03-01T08:54:30;24.52;;;12.40;;
44995;SDS011;30729;49.486;10.792;2023-03-01T08:57:55;26.13;;;12.50;;
44995;SDS011;30729;49.486;10.792;2023-03-01T09:01:19;26.20;;;13.63;;
44995;SDS011;30729;49.486;10.792;2023-03-01T09:04:43;23.58;;;12.95;;
44995;SDS011;30729;49.486;10.792;2023-03-01T09:08:07;26.20;;;12.73;;
44995;SDS011;30729;49.486;10.792;2023-03-01T09:11:32;24.50;;;12.68;;
44995;SDS011;30729;49.486;10.792;2023-03-01T09:14:56;26.98;;;12.90;;
44995;SDS011;30729;49.486;10.792;2023-03-01T09:18:20;24.45;;;12.18;;
44995;SDS011;30729;49.486;10.792;2023-03-01T09:21:44;28.25;;;13.98;;
44995;SDS011;30729;49.486;10.792;2023-03-01T09:25:08;28.02;;;12.38;;
44995;SDS011;30729;49.486;10.792;2023-03-01T09:28:37;29.20;;;14.50;;
44995;SDS011;30729;49.486;10.792;2023-03-01T09:32:01;22.30;;;12.20;;
44995;SDS011;30729;49.486;10.792;2023-03-01T09:35:25;23.10;;;12.88;;
44995;SDS011;30729;49.486;10.792;2023-03-01T09:38:52;20.77;;;11.32;;
44995;SDS011;30729;49.486;10.792;2023-03-01T09:42:16;26.08;;;12.73;;
44995;SDS011;30729;49.486;10.792;2023-03-01T09:45:49;25.42;;;13.60;;
44995;SDS011;30729;49.486;10.792;2023-03-01T09:49:15;25.30;;;12.55;;
44995;SDS011;30729;49.486;10.792;2023-03-01T09:52:46;26.85;;;12.38;;
44995;SDS011;30729;49.486;10.792;2023-03-01T09:56:19;23.60;;;12.65;;
44995;SDS011;30729;49.486;10.792;2023-03-01T10:04:03;25.73;;;12.55;;
44995;SDS011;30729;49.486;10.792;2023-03-01T10:08:50;25.98;;;13.23;;
44995;SDS011;30729;49.486;10.792;2023-03-01T10:11:43;23.95;;;12.18;;
44995;SDS011;30729;49.486;10.792;2023-03-01T10:15:25;23.35;;;12.05;;
44995;SDS011;30729;49.486;10.792;2023-03-01T10:18:59;22.75;;;12.15;;
44995;SDS011;30729;49.486;10.792;2023-03-01T10:22:42;23.63;;;12.07;;
44995;SDS011;30729;49.486;10.792;2023-03-01T10:29:45;21.63;;;12.05;;
44995;SDS011;30729;49.486;10.792;2023-03-01T10:36:42;22.23;;;12.80;;
44995;SDS011;30729;49.486;10.792;2023-03-01T10:40:21;25.17;;;13.13;;
44995;SDS011;30729;49.486;10.792;2023-03-01T10:43:50;22.95;;;12.40;;
44995;SDS011;30729;49.486;10.792;2023-03-01T10:50:49;27.10;;;12.43;;
44995;SDS011;30729;49.486;10.792;2023-03-01T10:54:22;21.48;;;12.10;;
44995;SDS011;30729;49.486;10.792;2023-03-01T10:57:50;23.25;;;11.50;;
44995;SDS011;30729;49.486;10.792;2023-03-01T11:01:32;23.55;;;11.27;;
44995;SDS011;30729;49.486;10.792;2023-03-01T11:05:19;25.70;;;12.30;;
44995;SDS011;30729;49.486;10.792;2023-03-01T11:08:50;25.98;;;12.32;;
44995;SDS011;30729;49.486;10.792;2023-03-01T11:12:14;24.15;;;11.88;;
44995;SDS011;30729;49.486;10.792;2023-03-01T11:15:40;26.98;;;12.75;;
44995;SDS011;30729;49.486;10.792;2023-03-01T11:22:42;25.10;;;11.93;;
44995;SDS011;30729;49.486;10.792;2023-03-01T11:26:10;23.67;;;12.52;;
44995;SDS011;30729;49.486;10.792;2023-03-01T11:29:44;22.85;;;11.82;;
44995;SDS011;30729;49.486;10.792;2023-03-01T11:33:13;22.40;;;12.25;;
44995;SDS011;30729;49.486;10.792;2023-03-01T11:36:49;24.63;;;13.03;;
44995;SDS011;30729;49.486;10.792;2023-03-01T11:43:58;24.67;;;12.18;;
44995;SDS011;30729;49.486;10.792;2023-03-01T11:51:05;18.35;;;10.27;;
44995;SDS011;30729;49.486;10.792;2023-03-01T11:55:12;27.05;;;14.68;;
44995;SDS011;30729;49.486;10.792;2023-03-01T12:10:26;22.40;;;12.00;;
44995;SDS011;30729;49.486;10.792;2023-03-01T12:14:02;21.45;;;10.63;;
44995;SDS011;30729;49.486;10.792;2023-03-01T12:50:40;21.30;;;10.93;;
44995;SDS011;30729;49.486;10.792;2023-03-01T12:54:07;21.75;;;11.20;;
44995;SDS011;30729;49.486;10.792;2023-03-01T12:57:49;21.48;;;10.73;;
44995;SDS011;30729;49.486;10.792;2023-03-01T13:05:20;20.95;;;10.98;;
44995;SDS011;30729;49.486;10.792;2023-03-01T13:16:20;21.98;;;11.52;;
44995;SDS011;30729;49.486;10.792;2023-03-01T13:19:57;21.30;;;11.00;;
44995;SDS011;30729;49.486;10.792;2023-03-01T13:30:51;20.25;;;10.25;;
44995;SDS011;30729;49.486;10.792;2023-03-01T13:34:57;20.15;;;10.70;;
44995;SDS011;30729;49.486;10.792;2023-03-01T13:38:36;22.58;;;10.82;;
44995;SDS011;30729;49.486;10.792;2023-03-01T13:42:03;18.80;;;9.88;;
44995;SDS011;30729;49.486;10.792;2023-03-01T13:45:47;18.88;;;10.70;;
44995;SDS011;30729;49.486;10.792;2023-03-01T13:49:18;22.10;;;10.80;;
44995;SDS011;30729;49.486;10.792;2023-03-01T13:53:04;21.40;;;11.02;;
44995;SDS011;30729;49.486;10.792;2023-03-01T13:56:33;17.88;;;10.38;;
44995;SDS011;30729;49.486;10.792;2023-03-01T14:00:00;19.38;;;9.75;;
44995;SDS011;30729;49.486;10.792;2023-03-01T14:03:29;19.90;;;11.02;;
44995;SDS011;30729;49.486;10.792;2023-03-01T14:07:11;22.17;;;12.05;;
44995;SDS011;30729;49.486;10.792;2023-03-01T14:11:01;18.58;;;10.02;;
44995;SDS011;30729;49.486;10.792;2023-03-01T14:21:58;19.38;;;11.30;;
44995;SDS011;30729;49.486;10.792;2023-03-01T14:25:26;20.67;;;10.75;;
44995;SDS011;30729;49.486;10.792;2023-03-01T14:28:50;22.40;;;10.63;;
44995;SDS011;30729;49.486;10.792;2023-03-01T14:32:25;16.92;;;10.00;;
44995;SDS011;30729;49.486;10.792;2023-03-01T14:39:34;22.45;;;11.75;;
44995;SDS011;30729;49.486;10.792;2023-03-01T14:43:04;21.38;;;11.00;;
44995;SDS011;30729;49.486;10.792;2023-03-01T14:46:41;19.45;;;11.25;;
44995;SDS011;30729;49.486;10.792;2023-03-01T14:50:09;19.08;;;11.35;;
44995;SDS011;30729;49.486;10.792;2023-03-01T14:53:36;20.02;;;10.82;;
44995;SDS011;30729;49.486;10.792;2023-03-01T14:57:03;19.02;;;10.73;;
44995;SDS011;30729;49.486;10.792;2023-03-01T15:00:31;23.17;;;11.80;;
44995;SDS011;30729;49.486;10.792;2023-03-01T15:03:56;24.98;;;11.68;;
44995;SDS011;30729;49.486;10.792;2023-03-01T15:07:28;21.17;;;10.95;;
44995;SDS011;30729;49.486;10.792;2023-03-01T15:14:47;21.55;;;11.18;;
44995;SDS011;30729;49.486;10.792;2023-03-01T15:18:17;21.55;;;11.38;;
44995;SDS011;30729;49.486;10.792;2023-03-01T15:21:43;24.02;;;11.77;;
44995;SDS011;30729;49.486;10.792;2023-03-01T15:25:16;21.92;;;11.50;;
44995;SDS011;30729;49.486;10.792;2023-03-01T15:28:54;22.75;;;11.38;;
44995;SDS011;30729;49.486;10.792;2023-03-01T15:32:31;20.10;;;10.90;;
44995;SDS011;30729;49.486;10.792;2023-03-01T15:36:03;22.50;;;11.18;;
44995;SDS011;30729;49.486;10.792;2023-03-01T15:39:43;18.55;;;10.52;;
44995;SDS011;30729;49.486;10.792;2023-03-01T15:46:59;20.08;;;10.18;;
44995;SDS011;30729;49.486;10.792;2023-03-01T15:50:29;18.67;;;9.52;;
44995;SDS011;30729;49.486;10.792;2023-03-01T15:53:55;22.40;;;10.75;;
44995;SDS011;30729;49.486;10.792;2023-03-01T15:57:23;19.88;;;10.38;;
44995;SDS011;30729;49.486;10.792;2023-03-01T16:00:48;18.50;;;9.98;;
44995;SDS011;30729;49.486;10.792;2023-03-01T16:04:13;17.13;;;8.85;;
44995;SDS011;30729;49.486;10.792;2023-03-01T16:07:42;18.58;;;8.82;;
44995;SDS011;30729;49.486;10.792;2023-03-01T16:11:13;17.65;;;9.98;;
44995;SDS011;30729;49.486;10.792;2023-03-01T16:14:41;20.45;;;9.68;;
44995;SDS011;30729;49.486;10.792;2023-03-01T16:18:05;19.73;;;9.48;;
44995;SDS011;30729;49.486;10.792;2023-03-01T16:21:29;17.67;;;9.57;;
44995;SDS011;30729;49.486;10.792;2023-03-01T16:24:53;16.75;;;8.93;;
44995;SDS011;30729;49.486;10.792;2023-03-01T16:28:17;17.08;;;9.52;;
44995;SDS011;30729;49.486;10.792;2023-03-01T16:31:41;18.88;;;9.13;;
44995;SDS011;30729;49.486;10.792;2023-03-01T16:35:06;17.42;;;10.20;;
44995;SDS011;30729;49.486;10.792;2023-03-01T16:38:34;18.52;;;10.30;;
44995;SDS011;30729;49.486;10.792;2023-03-01T16:41:59;17.35;;;8.98;;
44995;SDS011;30729;49.486;10.792;2023-03-01T16:45:26;20.02;;;9.88;;
44995;SDS011;30729;49.486;10.792;2023-03-01T16:48:52;17.20;;;8.48;;
44995;SDS011;30729;49.486;10.792;2023-03-01T16:52:17;21.30;;;11.15;;
44995;SDS011;30729;49.486;10.792;2023-03-01T16:55:41;20.30;;;11.23;;
44995;SDS011;30729;49.486;10.792;2023-03-01T16:59:05;26.38;;;12.10;;
44995;SDS011;30729;49.486;10.792;2023-03-01T17:02:32;21.08;;;11.88;;
44995;SDS011;30729;49.486;10.792;2023-03-01T17:05:56;23.02;;;11.85;;
44995;SDS011;30729;49.486;10.792;2023-03-01T17:09:20;21.42;;;11.45;;
44995;SDS011;30729;49.486;10.792;2023-03-01T17:12:44;23.83;;;11.95;;
44995;SDS011;30729;49.486;10.792;2023-03-01T17:16:15;21.48;;;12.40;;
44995;SDS011;30729;49.486;10.792;2023-03-01T17:19:40;23.73;;;12.23;;
44995;SDS011;30729;49.486;10.792;2023-03-01T17:23:03;22.50;;;10.48;;
44995;SDS011;30729;49.486;10.792;2023-03-01T17:26:28;22.90;;;11.38;;
44995;SDS011;30729;49.486;10.792;2023-03-01T17:29:53;22.55;;;11.52;;
44995;SDS011;30729;49.486;10.792;2023-03-01T17:33:17;21.70;;;11.95;;
44995;SDS011;30729;49.486;10.792;2023-03-01T17:36:41;24.80;;;10.63;;
44995;SDS011;30729;49.486;10.792;2023-03-01T17:40:10;22.20;;;11.60;;
44995;SDS011;30729;49.486;10.792;2023-03-01T17:43:36;22.87;;;12.03;;
44995;SDS011;30729;49.486;10.792;2023-03-01T17:47:00;25.20;;;12.60;;
44995;SDS011;30729;49.486;10.792;2023-03-01T17:50:24;23.02;;;12.38;;
44995;SDS011;30729;49.486;10.792;2023-03-01T17:53:48;26.58;;;13.38;;
44995;SDS011;30729;49.486;10.792;2023-03-01T17:57:12;22.65;;;12.40;;
44995;SDS011;30729;49.486;10.792;2023-03-01T18:00:37;24.55;;;12.52;;
44995;SDS011;30729;49.486;10.792;2023-03-01T18:04:00;26.70;;;14.23;;
44995;SDS011;30729;49.486;10.792;2023-03-01T18:07:25;25.02;;;13.05;;
44995;SDS011;30729;49.486;10.792;2023-03-01T18:10:54;21.20;;;13.05;;
44995;SDS011;30729;49.486;10.792;2023-03-01T18:14:20;25.00;;;13.43;;
44995;SDS011;30729;49.486;10.792;2023-03-01T18:17:44;25.23;;;12.73;;
44995;SDS011;30729;49.486;10.792;2023-03-01T18:21:09;25.90;;;13.57;;
44995;SDS011;30729;49.486;10.792;2023-03-01T18:24:33;29.58;;;14.73;;
44995;SDS011;30729;49.486;10.792;2023-03-01T18:27:57;27.35;;;15.02;;
44995;SDS011;30729;49.486;10.792;2023-03-01T18:31:22;29.35;;;13.75;;
44995;SDS011;30729;49.486;10.792;2023-03-01T18:34:47;25.70;;;14.55;;
44995;SDS011;30729;49.486;10.792;2023-03-01T18:38:13;27.67;;;12.88;;
44995;SDS011;30729;49.486;10.792;2023-03-01T18:41:39;26.73;;;13.75;;
44995;SDS011;30729;49.486;10.792;2023-03-01T18:45:03;25.58;;;12.60;;
44995;SDS011;30729;49.486;10.792;2023-03-01T18:48:29;29.00;;;14.00;;
44995;SDS011;30729;49.486;10.792;2023-03-01T18:51:53;29.10;;;15.52;;
44995;SDS011;30729;49.486;10.792;2023-03-01T18:55:16;34.00;;;17.60;;
44995;SDS011;30729;49.486;10.792;2023-03-01T18:58:41;38.67;;;18.63;;
44995;SDS011;30729;49.486;10.792;2023-03-01T19:02:05;35.72;;;16.33;;
44995;SDS011;30729;49.486;10.792;2023-03-01T19:05:29;29.55;;;15.75;;
44995;SDS011;30729;49.486;10.792;2023-03-01T19:08:55;28.70;;;15.50;;
44995;SDS011;30729;49.486;10.792;2023-03-01T19:12:19;29.25;;;15.88;;
44995;SDS011;30729;49.486;10.792;2023-03-01T19:15:43;29.45;;;16.02;;
44995;SDS011;30729;49.486;10.792;2023-03-01T19:19:07;29.77;;;14.77;;
44995;SDS011;30729;49.486;10.792;2023-03-01T19:22:31;29.20;;;15.20;;
44995;SDS011;30729;49.486;10.792;2023-03-01T19:25:59;30.98;;;15.07;;
44995;SDS011;30729;49.486;10.792;2023-03-01T19:29:23;30.48;;;14.88;;
44995;SDS011;30729;49.486;10.792;2023-03-01T19:32:48;28.58;;;16.20;;
44995;SDS011;30729;49.486;10.792;2023-03-01T19:36:12;31.02;;;15.98;;
44995;SDS011;30729;49.486;10.792;2023-03-01T19:39:36;27.65;;;15.27;;
44995;SDS011;30729;49.486;10.792;2023-03-01T19:43:00;28.27;;;15.60;;
44995;SDS011;30729;49.486;10.792;2023-03-01T19:46:28;31.77;;;17.35;;
44995;SDS011;30729;49.486;10.792;2023-03-01T19:49:52;34.30;;;19.95;;
44995;SDS011;30729;49.486;10.792;2023-03-01T19:53:17;32.13;;;17.60;;
44995;SDS011;30729;49.486;10.792;2023-03-01T19:56:48;31.92;;;17.20;;
44995;SDS011;30729;49.486;10.792;2023-03-01T20:00:12;37.45;;;18.05;;
44995;SDS011;30729;49.486;10.792;2023-03-01T20:03:38;32.00;;;17.05;;
44995;SDS011;30729;49.486;10.792;2023-03-01T20:07:02;32.13;;;17.30;;
44995;SDS011;30729;49.486;10.792;2023-03-01T20:10:27;30.75;;;16.58;;
44995;SDS011;30729;49.486;10.792;2023-03-01T20:13:51;29.45;;;16.13;;
44995;SDS011;30729;49.486;10.792;2023-03-01T20:17:19;30.25;;;14.95;;
44995;SDS011;30729;49.486;10.792;2023-03-01T20:20:46;28.55;;;16.23;;
44995;SDS011;30729;49.486;10.792;2023-03-01T20:24:10;33.60;;;16.88;;
44995;SDS011;30729;49.486;10.792;2023-03-01T20:27:34;31.45;;;16.08;;
44995;SDS011;30729;49.486;10.792;2023-03-01T20:31:05;28.02;;;15.30;;
44995;SDS011;30729;49.486;10.792;2023-03-01T20:34:29;32.03;;;16.10;;
44995;SDS011;30729;49.486;10.792;2023-03-01T20:37:56;29.00;;;16.10;;
44995;SDS011;30729;49.486;10.792;2023-03-01T20:41:20;31.77;;;16.42;;
44995;SDS011;30729;49.486;10.792;2023-03-01T20:44:44;29.38;;;15.35;;
44995;SDS011;30729;49.486;10.792;2023-03-01T20:48:08;31.85;;;17.63;;
44995;SDS011;30729;49.486;10.792;2023-03-01T20:51:32;34.30;;;16.30;;
44995;SDS011;30729;49.486;10.792;2023-03-01T20:54:56;34.42;;;16.00;;
44995;SDS011;30729;49.486;10.792;2023-03-01T20:58:20;34.95;;;17.13;;
44995;SDS011;30729;49.486;10.792;2023-03-01T21:01:44;35.13;;;17.00;;
44995;SDS011;30729;49.486;10.792;2023-03-01T21:05:08;32.50;;;17.02;;
44995;SDS011;30729;49.486;10.792;2023-03-01T21:08:33;36.67;;;16.63;;
44995;SDS011;30729;49.486;10.792;2023-03-01T21:11:57;35.03;;;15.80;;
44995;SDS011;30729;49.486;10.792;2023-03-01T21:15:21;34.25;;;17.13;;
44995;SDS011;30729;49.486;10.792;2023-03-01T21:18:46;34.47;;;17.10;;
44995;SDS011;30729;49.486;10.792;2023-03-01T21:22:11;31.23;;;16.60;;
44995;SDS011;30729;49.486;10.792;2023-03-01T21:25:35;32.03;;;16.90;;
44995;SDS011;30729;49.486;10.792;2023-03-01T21:28:59;35.05;;;17.02;;
44995;SDS011;30729;49.486;10.792;2023-03-01T21:32:23;32.00;;;16.52;;
44995;SDS011;30729;49.486;10.792;2023-03-01T21:35:46;32.85;;;16.67;;
44995;SDS011;30729;49.486;10.792;2023-03-01T21:39:10;30.65;;;15.82;;
44995;SDS011;30729;49.486;10.792;2023-03-01T21:42:35;32.85;;;15.80;;
44995;SDS011;30729;49.486;10.792;2023-03-01T21:46:00;29.92;;;15.25;;
44995;SDS011;30729;49.486;10.792;2023-03-01T21:49:25;33.75;;;17.35;;
44995;SDS011;30729;49.486;10.792;2023-03-01T21:52:49;36.95;;;16.83;;
44995;SDS011;30729;49.486;10.792;2023-03-01T21:56:18;36.42;;;16.42;;
44995;SDS011;30729;49.486;10.792;2023-03-01T21:59:43;32.35;;;17.20;;
44995;SDS011;30729;49.486;10.792;2023-03-01T22:03:06;38.97;;;18.70;;